UDCIV weather

Public forecast

Using degrees Celsius for public forecast. Weather courtesy of forecast.io.

Closest aviation weather report (METAR) to Campo di Volo Ali Friuli

Closest report is Trieste–Friuli Venezia Giulia Airport, 13.9 nm (25.7 km) S. Retrieved 2020/08/15 07:20 UTC (30 minutes ago):

LIPQ 150720Z AUTO 33003KT 300V020 0800 R09/P1500N FG NCD 24/17 Q1012

Closest aviation forecast (TAF) to Campo di Volo Ali Friuli

Closest forecast is Trieste–Friuli Venezia Giulia Airport, 13.9 nm (25.7 km) S. Retrieved 2020/08/15 06:21 UTC (1 hour ago):

TAF LIPQ 150500Z 1506/1606 VRB05KT 9999 SCT030 TEMPO 1511/1515 4000 TSRA